createdAt,value
2019-01-11T00:01:13.555Z,98924.91
2019-01-11T00:03:43.866Z,98920.41
2019-01-11T00:06:14.084Z,98919.48
2019-01-11T00:08:44.490Z,98924.02
2019-01-11T00:11:14.815Z,98924.42
2019-01-11T00:13:45.123Z,98931.33
2019-01-11T00:16:15.361Z,98934.59
2019-01-11T00:18:45.953Z,98935.92
2019-01-11T00:21:16.235Z,98942.06
2019-01-11T00:23:46.576Z,98942.47
2019-01-11T00:26:16.816Z,98941.14
2019-01-11T00:28:47.045Z,98934.91
2019-01-11T00:31:17.271Z,98936.02
2019-01-11T00:33:47.411Z,98931.63
2019-01-11T00:36:17.626Z,98930.30
2019-01-11T00:38:48.052Z,98938.36
2019-01-11T00:41:18.223Z,98937.76
2019-01-11T00:43:48.378Z,98934.91
2019-01-11T00:46:18.499Z,98941.54
2019-01-11T00:48:48.651Z,98931.41
2019-01-11T00:51:19.129Z,98936.00
2019-01-11T00:53:49.280Z,98933.56
2019-01-11T00:56:19.608Z,98932.74
2019-01-11T00:58:50.374Z,98924.27
2019-01-11T01:01:20.617Z,98931.41
2019-01-11T01:03:50.750Z,98940.71
2019-01-11T01:06:21.064Z,98940.39
2019-01-11T01:08:51.291Z,98942.77
2019-01-11T01:11:21.455Z,98945.71
2019-01-11T01:13:51.721Z,98948.59
2019-01-11T01:16:21.884Z,98949.31
2019-01-11T01:18:52.107Z,98944.92
2019-01-11T01:21:22.230Z,98947.58
2019-01-11T01:23:52.389Z,98953.50
2019-01-11T01:26:22.605Z,98956.56
2019-01-11T01:28:52.961Z,98952.58
2019-01-11T01:31:23.620Z,98953.78
2019-01-11T01:33:54.005Z,98948.28
2019-01-11T01:36:25.191Z,98951.73
2019-01-11T01:38:55.542Z,98950.28
2019-01-11T01:41:25.818Z,98946.30
2019-01-11T01:43:55.977Z,98937.72
2019-01-11T01:46:26.230Z,98941.80
2019-01-11T01:48:57.600Z,98938.95
2019-01-11T01:51:27.881Z,98940.70
2019-01-11T01:53:58.562Z,98948.67
2019-01-11T01:56:28.741Z,98950.84
2019-01-11T01:58:59.002Z,98955.84
2019-01-11T02:01:30.825Z,98952.17
2019-01-11T02:04:01.313Z,98951.46
2019-01-11T02:06:31.488Z,98955.03
2019-01-11T02:09:01.985Z,98951.14
2019-01-11T02:11:32.127Z,98951.38
2019-01-11T02:14:02.501Z,98953.93
2019-01-11T02:16:32.664Z,98943.02
2019-01-11T02:19:03.242Z,98944.41
2019-01-11T02:21:33.647Z,98947.80
2019-01-11T02:24:03.840Z,98943.70
2019-01-11T02:26:34.188Z,98944.34
2019-01-11T02:29:04.600Z,98947.07
2019-01-11T02:31:34.825Z,98950.58
2019-01-11T02:34:05.071Z,98943.82
2019-01-11T02:36:35.182Z,98947.20
2019-01-11T02:39:07.793Z,98950.58
2019-01-11T02:41:38.156Z,98948.36
2019-01-11T02:44:08.426Z,98942.41
2019-01-11T02:46:38.865Z,98943.84
2019-01-11T02:49:08.983Z,98934.45
2019-01-11T02:51:39.109Z,98941.73
2019-01-11T02:54:09.404Z,98943.47
2019-01-11T02:56:39.494Z,98942.04
2019-01-11T02:59:09.886Z,98941.21
2019-01-11T03:01:40.042Z,98940.70
2019-01-11T03:04:10.375Z,98943.56
2019-01-11T03:06:41.205Z,98946.20
2019-01-11T03:09:11.436Z,98946.91
2019-01-11T03:11:41.558Z,98947.91
2019-01-11T03:14:11.887Z,98940.05
2019-01-11T03:16:42.123Z,98937.91
2019-01-11T03:19:12.372Z,98942.59
2019-01-11T03:21:42.576Z,98939.54
2019-01-11T03:24:12.843Z,98938.09
2019-01-11T03:26:43.049Z,98931.57
2019-01-11T03:29:13.226Z,98932.36
2019-01-11T03:31:43.428Z,98936.76
2019-01-11T03:34:13.656Z,98937.58
2019-01-11T03:36:43.812Z,98940.95
2019-01-11T03:39:13.930Z,98940.95
2019-01-11T03:41:59.293Z,98936.53
2019-01-11T03:44:29.738Z,98928.58
2019-01-11T03:46:59.959Z,98929.91
2019-01-11T03:49:30.223Z,98937.36
2019-01-11T03:52:00.367Z,98942.97
2019-01-11T03:54:32.460Z,98938.92
2019-01-11T03:57:02.731Z,98939.92
2019-01-11T03:59:33.040Z,98944.41
2019-01-11T04:02:03.144Z,98940.53
2019-01-11T04:04:33.346Z,98941.56
2019-01-11T04:07:03.671Z,98945.54
2019-01-11T04:09:33.839Z,98939.70
2019-01-11T04:12:04.051Z,98934.22
2019-01-11T04:14:34.282Z,98946.95
2019-01-11T04:17:04.543Z,98944.62
2019-01-11T04:19:34.729Z,98947.28
2019-01-11T04:22:14.081Z,98952.09
2019-01-11T04:25:02.238Z,98946.96
2019-01-11T04:27:32.365Z,98959.13
2019-01-11T04:30:02.794Z,98953.41
2019-01-11T04:32:33.021Z,98949.94
2019-01-11T04:35:05.565Z,98943.20
2019-01-11T04:37:36.024Z,98946.07
2019-01-11T04:40:06.626Z,98948.94
2019-01-11T04:42:37.120Z,98945.23
2019-01-11T04:45:08.727Z,98943.30
2019-01-11T04:47:38.926Z,98952.25
2019-01-11T04:50:11.850Z,98954.38
2019-01-11T04:52:42.058Z,98955.32
2019-01-11T04:55:12.703Z,98949.70
2019-01-11T04:57:43.192Z,98956.86
2019-01-11T05:00:16.853Z,98948.37
2019-01-11T05:02:48.072Z,98958.80
2019-01-11T05:05:18.711Z,98955.61
2019-01-11T05:07:49.214Z,98950.63
2019-01-11T05:10:21.109Z,98952.44
2019-01-11T05:12:51.367Z,98949.50
2019-01-11T05:15:21.742Z,98956.65
2019-01-11T05:17:52.165Z,98950.31
2019-01-11T05:20:22.349Z,98948.80
2019-01-11T05:22:52.464Z,98949.92
2019-01-11T05:25:22.732Z,98948.59
2019-01-11T05:27:53.058Z,98944.41
2019-01-11T05:30:23.802Z,98952.36
2019-01-11T05:32:54.104Z,98947.49
2019-01-11T05:35:24.534Z,98945.75
2019-01-11T05:37:55.191Z,98952.91
2019-01-11T05:40:25.517Z,98958.63
2019-01-11T05:42:55.839Z,98956.36
2019-01-11T05:45:26.164Z,98958.72
2019-01-11T05:47:56.334Z,98955.56
2019-01-11T05:50:26.708Z,98950.55
2019-01-11T05:52:56.924Z,98948.40
2019-01-11T05:55:46.111Z,98947.69
2019-01-11T05:58:44.535Z,98951.16
2019-01-11T06:01:18.773Z,98951.05
2019-01-11T06:03:49.081Z,98954.41
2019-01-11T06:06:19.274Z,98950.88
2019-01-11T06:08:49.428Z,98953.61
2019-01-11T06:11:19.810Z,98955.05
2019-01-11T06:13:49.932Z,98950.56
2019-01-11T06:16:20.805Z,98957.08
2019-01-11T06:18:51.066Z,98957.30
2019-01-11T06:21:21.394Z,98959.95
2019-01-11T06:23:51.787Z,98956.89
2019-01-11T06:26:21.946Z,98957.69
2019-01-11T06:28:52.213Z,98956.68
2019-01-11T06:31:23.261Z,98958.51
2019-01-11T06:33:53.483Z,98968.71
2019-01-11T06:36:23.726Z,98958.11
2019-01-11T06:38:53.945Z,98959.22
2019-01-11T06:41:25.743Z,98969.83
2019-01-11T06:43:56.306Z,98966.97
2019-01-11T06:46:26.722Z,98968.27
2019-01-11T06:48:56.884Z,98969.81
2019-01-11T06:51:27.146Z,98974.91
2019-01-11T06:53:59.285Z,98970.13
2019-01-11T06:56:29.446Z,98973.91
2019-01-11T06:58:59.686Z,98971.36
2019-01-11T07:01:30.373Z,98967.08
2019-01-11T07:04:00.565Z,98961.27
2019-01-11T07:06:30.971Z,98967.08
2019-01-11T07:09:01.092Z,98963.83
2019-01-11T07:11:32.506Z,98960.46
2019-01-11T07:14:02.914Z,98969.34
2019-01-11T07:16:33.441Z,98971.39
2019-01-11T07:19:03.769Z,98964.33
2019-01-11T07:21:34.171Z,98969.14
2019-01-11T07:24:04.384Z,98967.53
2019-01-11T07:26:34.618Z,98967.22
2019-01-11T07:29:04.759Z,98964.47
2019-01-11T07:31:35.451Z,98971.42
2019-01-11T07:34:05.810Z,98962.53
2019-01-11T07:36:37.013Z,98965.41
2019-01-11T07:39:33.383Z,98962.97
2019-01-11T07:42:04.537Z,98956.02
2019-01-11T07:44:34.927Z,98957.86
2019-01-11T07:47:05.450Z,98961.73
2019-01-11T07:49:36.071Z,98963.59
2019-01-11T07:52:06.963Z,98968.58
2019-01-11T07:54:37.660Z,98979.09
2019-01-11T07:57:08.003Z,98976.34
2019-01-11T07:59:38.323Z,98970.84
2019-01-11T08:02:08.486Z,98960.33
2019-01-11T08:04:38.639Z,98958.79
2019-01-11T08:07:08.862Z,98964.09
2019-01-11T08:09:39.331Z,98961.12
2019-01-11T08:12:10.223Z,98966.54
2019-01-11T08:14:40.611Z,98967.05
2019-01-11T08:17:11.938Z,98965.31
2019-01-11T08:19:42.398Z,98966.03
2019-01-11T08:22:25.515Z,98967.64
2019-01-11T08:25:02.590Z,98968.78
2019-01-11T08:27:33.159Z,98972.66
2019-01-11T08:30:04.122Z,98976.64
2019-01-11T08:32:34.539Z,98974.28
2019-01-11T08:35:10.029Z,98974.80
2019-01-11T08:37:40.652Z,98966.83
2019-01-11T08:40:12.491Z,98969.77
2019-01-11T08:42:43.889Z,98979.08
2019-01-11T08:45:14.551Z,98980.62
2019-01-11T08:47:45.096Z,98973.45
2019-01-11T08:50:18.114Z,98975.80
2019-01-11T08:52:49.277Z,98973.23
2019-01-11T08:55:19.895Z,98981.92
2019-01-11T08:57:50.482Z,98971.29
2019-01-11T09:00:21.168Z,98984.15
2019-01-11T09:02:51.462Z,98978.38
2019-01-11T09:05:24.382Z,98981.94
2019-01-11T09:07:55.125Z,98982.22
2019-01-11T09:10:25.868Z,98983.46
2019-01-11T09:12:56.159Z,98982.91
2019-01-11T09:15:26.742Z,98985.16
2019-01-11T09:18:21.795Z,98988.80
2019-01-11T09:20:52.713Z,98990.57
2019-01-11T09:23:23.179Z,98985.69
2019-01-11T09:25:53.834Z,98984.45
2019-01-11T09:28:27.347Z,98989.43
2019-01-11T09:30:57.846Z,98980.91
2019-01-11T09:33:28.433Z,98989.91
2019-01-11T09:36:00.944Z,98990.69
2019-01-11T09:38:31.287Z,98985.56
2019-01-11T09:41:01.446Z,98985.80
2019-01-11T09:43:34.378Z,98986.50
2019-01-11T09:46:04.666Z,98985.98
2019-01-11T09:48:34.865Z,98990.23
2019-01-11T09:51:05.029Z,98987.13
2019-01-11T09:53:35.247Z,98978.20
2019-01-11T09:56:05.759Z,98975.09
2019-01-11T09:58:36.346Z,98967.48
2019-01-11T10:01:06.936Z,98973.41
2019-01-11T10:03:37.054Z,98975.47
2019-01-11T10:06:07.157Z,98964.37
2019-01-11T10:08:37.446Z,98962.95
2019-01-11T10:11:07.718Z,98965.89
2019-01-11T10:13:37.852Z,98965.92
2019-01-11T10:16:08.178Z,98965.44
2019-01-11T10:18:38.993Z,98971.17
2019-01-11T10:21:10.916Z,98975.59
2019-01-11T10:23:41.277Z,98973.35
2019-01-11T10:26:12.271Z,98977.68
2019-01-11T10:28:42.627Z,98980.21
2019-01-11T10:31:12.986Z,98970.02
2019-01-11T10:33:43.118Z,98982.13
2019-01-11T10:36:13.668Z,98972.27
2019-01-11T10:38:43.903Z,98970.20
2019-01-11T10:41:14.461Z,98972.39
2019-01-11T10:43:44.743Z,98969.34
2019-01-11T10:46:32.394Z,98972.47
2019-01-11T10:49:02.798Z,98971.87
2019-01-11T10:51:33.083Z,98967.13
2019-01-11T10:54:03.321Z,98970.77
2019-01-11T10:56:33.633Z,98956.64
2019-01-11T10:59:03.987Z,98959.33
2019-01-11T11:01:34.227Z,98953.47
2019-01-11T11:04:04.738Z,98948.87
2019-01-11T11:06:35.206Z,98934.18
2019-01-11T11:09:07.223Z,98951.12
2019-01-11T11:11:37.452Z,98941.20
2019-01-11T11:14:07.824Z,98937.21
2019-01-11T11:16:38.141Z,98932.02
2019-01-11T11:19:08.280Z,98938.64
2019-01-11T11:21:38.416Z,98945.70
2019-01-11T11:24:08.793Z,98947.31
2019-01-11T11:26:40.354Z,98942.30
2019-01-11T11:29:10.783Z,98936.62
2019-01-11T11:31:41.221Z,98935.64
2019-01-11T11:34:11.362Z,98936.02
2019-01-11T11:36:41.485Z,98930.59
2019-01-11T11:39:12.503Z,98921.87
2019-01-11T11:41:42.770Z,98918.12
2019-01-11T11:44:13.405Z,98909.80
2019-01-11T11:46:43.824Z,98909.60
2019-01-11T11:49:14.388Z,98903.84
2019-01-11T11:51:44.833Z,98904.02
2019-01-11T11:54:15.472Z,98899.20
2019-01-11T11:56:46.004Z,98892.57
2019-01-11T11:59:16.154Z,98888.89
2019-01-11T12:01:46.839Z,98890.86
2019-01-11T12:04:17.534Z,98896.14
2019-01-11T12:06:47.788Z,98895.80
2019-01-11T12:09:18.124Z,98886.45
2019-01-11T12:11:49.296Z,98877.04
2019-01-11T12:14:20.150Z,98873.06
2019-01-11T12:16:50.421Z,98874.42
2019-01-11T12:19:20.747Z,98873.10
2019-01-11T12:21:51.201Z,98866.61
2019-01-11T12:24:21.309Z,98875.48
2019-01-11T12:26:51.492Z,98862.58
2019-01-11T12:29:21.733Z,98848.08
2019-01-11T12:31:52.022Z,98845.95
2019-01-11T12:34:22.135Z,98847.88
2019-01-11T12:36:52.395Z,98847.94
2019-01-11T12:39:22.674Z,98841.87
2019-01-11T12:41:53.472Z,98839.80
2019-01-11T12:44:23.783Z,98836.08
2019-01-11T12:46:55.442Z,98844.23
2019-01-11T12:49:25.904Z,98844.66
2019-01-11T12:51:56.272Z,98843.80
2019-01-11T12:54:26.375Z,98847.80
2019-01-11T12:56:56.749Z,98840.03
2019-01-11T12:59:27.028Z,98832.08
2019-01-11T13:01:57.392Z,98830.75
2019-01-11T13:04:27.535Z,98835.64
2019-01-11T13:06:58.294Z,98829.22
2019-01-11T13:09:28.549Z,98833.13
2019-01-11T13:11:58.908Z,98824.51
2019-01-11T13:14:29.130Z,98819.91
2019-01-11T13:16:59.265Z,98817.25
2019-01-11T13:19:29.520Z,98810.22
2019-01-11T13:22:00.661Z,98814.07
2019-01-11T13:24:31.589Z,98820.03
2019-01-11T13:27:02.992Z,98813.44
2019-01-11T13:29:33.347Z,98816.78
2019-01-11T13:32:03.544Z,98812.09
2019-01-11T13:34:33.790Z,98817.55
2019-01-11T13:37:04.455Z,98820.70
2019-01-11T13:39:34.695Z,98820.57
2019-01-11T13:42:05.311Z,98824.00
2019-01-11T13:44:36.902Z,98825.10
2019-01-11T13:47:08.304Z,98816.03
2019-01-11T13:49:38.644Z,98823.17
2019-01-11T13:52:09.079Z,98824.06
2019-01-11T13:54:39.293Z,98820.57
2019-01-11T13:57:09.572Z,98817.03
2019-01-11T13:59:41.642Z,98812.53
2019-01-11T14:02:12.367Z,98816.99
2019-01-11T14:04:42.657Z,98810.55
2019-01-11T14:07:13.099Z,98803.80
2019-01-11T14:09:43.485Z,98805.19
2019-01-11T14:12:14.097Z,98801.14
2019-01-11T14:14:44.365Z,98787.78
2019-01-11T14:17:14.640Z,98800.98
2019-01-11T14:19:45.055Z,98807.57
2019-01-11T14:22:15.918Z,98799.88
2019-01-11T14:24:46.364Z,98817.80
2019-01-11T14:27:16.625Z,98818.50
2019-01-11T14:29:46.923Z,98812.33
2019-01-11T14:32:17.762Z,98807.97
2019-01-11T14:34:48.178Z,98809.06
2019-01-11T14:37:18.481Z,98809.66
2019-01-11T14:39:49.264Z,98824.92
2019-01-11T14:42:19.655Z,98819.71
2019-01-11T14:44:50.095Z,98822.36
2019-01-11T14:47:20.968Z,98813.56
2019-01-11T14:49:51.188Z,98820.36
2019-01-11T14:52:23.735Z,98823.56
2019-01-11T14:54:56.803Z,98829.67
2019-01-11T14:57:27.439Z,98821.27
2019-01-11T14:59:58.068Z,98816.87
2019-01-11T15:02:28.548Z,98821.55
2019-01-11T15:04:59.138Z,98821.64
2019-01-11T15:07:29.328Z,98821.05
2019-01-11T15:09:59.764Z,98819.62
2019-01-11T15:12:29.954Z,98818.44
2019-01-11T15:15:00.261Z,98825.95
2019-01-11T15:17:30.997Z,98823.75
2019-01-11T15:20:03.422Z,98827.51
2019-01-11T15:22:33.485Z,98827.00
2019-01-11T15:25:03.870Z,98819.26
2019-01-11T15:27:34.462Z,98821.96
2019-01-11T15:30:06.268Z,98819.80
2019-01-11T15:32:36.562Z,98818.29
2019-01-11T15:35:07.160Z,98814.07
2019-01-11T15:37:37.516Z,98818.84
2019-01-11T15:40:12.298Z,98817.42
2019-01-11T15:42:42.826Z,98811.50
2019-01-11T15:45:13.168Z,98823.74
2019-01-11T15:47:44.996Z,98830.03
2019-01-11T15:50:36.955Z,98828.97
2019-01-11T15:53:07.267Z,98827.44
2019-01-11T15:55:37.410Z,98828.64
2019-01-11T15:58:07.745Z,98830.51
2019-01-11T16:00:42.849Z,98831.36
2019-01-11T16:03:13.032Z,98829.94
2019-01-11T16:05:43.733Z,98834.37
2019-01-11T16:08:14.007Z,98824.46
2019-01-11T16:11:34.714Z,98825.79
2019-01-11T16:14:19.683Z,98826.99
2019-01-11T16:17:00.838Z,98824.55
2019-01-11T16:19:31.059Z,98818.41
2019-01-11T16:22:01.411Z,98818.64
2019-01-11T16:24:31.974Z,98803.20
2019-01-11T16:27:02.435Z,98816.77
2019-01-11T16:29:32.745Z,98806.91
2019-01-11T16:32:03.194Z,98810.05
2019-01-11T16:34:33.775Z,98806.22
2019-01-11T16:37:04.219Z,98804.98
2019-01-11T16:39:34.727Z,98806.41
2019-01-11T16:42:05.529Z,98803.14
2019-01-11T16:44:35.925Z,98804.02
2019-01-11T16:47:06.380Z,98804.83
2019-01-11T16:49:36.769Z,98799.47
2019-01-11T16:52:07.341Z,98799.78
2019-01-11T16:54:37.718Z,98798.18
2019-01-11T16:57:07.999Z,98804.59
2019-01-11T16:59:38.616Z,98798.46
2019-01-11T17:02:09.064Z,98800.16
2019-01-11T17:04:39.308Z,98803.55
2019-01-11T17:07:09.457Z,98805.11
2019-01-11T17:09:40.033Z,98798.88
2019-01-11T17:12:10.671Z,98803.46
2019-01-11T17:14:41.164Z,98803.68
2019-01-11T17:17:11.580Z,98807.54
2019-01-11T17:19:41.854Z,98811.97
2019-01-11T17:22:12.325Z,98811.05
2019-01-11T17:24:42.752Z,98812.95
2019-01-11T17:27:13.243Z,98806.91
2019-01-11T17:29:47.087Z,98810.98
2019-01-11T17:32:16.434Z,98812.31
2019-01-11T17:34:46.831Z,98809.05
2019-01-11T17:37:17.380Z,98813.72
2019-01-11T17:39:48.902Z,98815.29
2019-01-11T17:42:19.929Z,98810.67
2019-01-11T17:44:50.305Z,98814.82
2019-01-11T17:47:20.714Z,98815.70
2019-01-11T17:49:50.972Z,98819.19
2019-01-11T17:52:21.386Z,98815.29
2019-01-11T17:54:51.884Z,98809.66
2019-01-11T17:57:22.173Z,98810.39
2019-01-11T17:59:52.440Z,98809.75
2019-01-11T18:02:22.736Z,98807.86
2019-01-11T18:04:53.071Z,98808.19
2019-01-11T18:07:23.471Z,98809.33
2019-01-11T18:09:54.009Z,98808.00
2019-01-11T18:12:24.479Z,98805.85
2019-01-11T18:14:54.734Z,98808.75
2019-01-11T18:17:25.210Z,98804.58
2019-01-11T18:19:55.961Z,98805.50
2019-01-11T18:22:26.394Z,98803.84
2019-01-11T18:24:56.612Z,98807.23
2019-01-11T18:27:26.910Z,98809.58
2019-01-11T18:29:57.651Z,98811.09
2019-01-11T18:32:28.074Z,98815.48
2019-01-11T18:34:58.513Z,98816.69
2019-01-11T18:37:28.768Z,98812.09
2019-01-11T18:39:59.235Z,98808.11
2019-01-11T18:42:29.948Z,98812.41
2019-01-11T18:45:01.231Z,98814.44
2019-01-11T18:47:31.731Z,98811.55
2019-01-11T18:50:02.275Z,98808.80
2019-01-11T18:52:32.723Z,98808.98
2019-01-11T18:55:03.061Z,98814.34
2019-01-11T18:57:33.511Z,98810.81
2019-01-11T19:00:04.154Z,98812.09
2019-01-11T19:02:35.130Z,98810.95
2019-01-11T19:05:07.023Z,98804.48
2019-01-11T19:07:37.553Z,98811.64
2019-01-11T19:10:10.602Z,98812.56
2019-01-11T19:12:41.100Z,98806.55
2019-01-11T19:15:13.999Z,98805.91
2019-01-11T19:17:44.271Z,98809.31
2019-01-11T19:20:26.184Z,98801.87
2019-01-11T19:22:56.689Z,98803.11
2019-01-11T19:25:27.534Z,98799.81
2019-01-11T19:27:58.006Z,98800.59
2019-01-11T19:30:29.861Z,98808.58
2019-01-11T19:33:00.234Z,98803.70
2019-01-11T19:35:30.882Z,98802.33
2019-01-11T19:38:01.392Z,98805.77
2019-01-11T19:40:31.879Z,98808.48
2019-01-11T19:43:05.082Z,98799.48
2019-01-11T19:45:36.042Z,98802.97
2019-01-11T19:48:07.226Z,98810.72
2019-01-11T19:50:37.867Z,98811.55
2019-01-11T19:53:09.547Z,98811.78
2019-01-11T19:55:40.192Z,98818.38
2019-01-11T19:58:10.682Z,98812.52
2019-01-11T20:00:41.115Z,98817.23
2019-01-11T20:03:11.848Z,98816.64
2019-01-11T20:05:42.516Z,98812.23
2019-01-11T20:08:13.216Z,98819.48
2019-01-11T20:10:43.957Z,98819.11
2019-01-11T20:13:14.292Z,98822.00
2019-01-11T20:15:44.900Z,98823.70
2019-01-11T20:18:15.816Z,98818.92
2019-01-11T20:20:46.414Z,98818.09
2019-01-11T20:23:17.002Z,98815.30
2019-01-11T20:25:47.559Z,98816.55
2019-01-11T20:28:18.119Z,98821.95
2019-01-11T20:30:48.547Z,98820.53
2019-01-11T20:33:19.604Z,98816.41
2019-01-11T20:35:50.356Z,98804.48
2019-01-11T20:38:20.708Z,98808.28
2019-01-11T20:40:51.314Z,98812.27
2019-01-11T20:43:22.115Z,98816.06
2019-01-11T20:45:52.608Z,98822.21
2019-01-11T20:48:23.332Z,98815.42
2019-01-11T20:50:53.870Z,98826.06
2019-01-11T20:53:24.592Z,98816.38
2019-01-11T20:55:58.032Z,98827.84
2019-01-11T20:58:28.584Z,98830.94
2019-01-11T21:00:59.386Z,98821.34
2019-01-11T21:03:30.241Z,98822.02
2019-01-11T21:06:01.038Z,98823.12
2019-01-11T21:08:31.637Z,98816.78
2019-01-11T21:11:02.096Z,98822.10
2019-01-11T21:13:32.662Z,98814.11
2019-01-11T21:16:04.404Z,98825.05
2019-01-11T21:18:34.913Z,98811.73
2019-01-11T21:21:05.639Z,98817.20
2019-01-11T21:23:36.069Z,98814.11
2019-01-11T21:26:06.527Z,98818.47
2019-01-11T21:28:37.597Z,98820.31
2019-01-11T21:31:08.407Z,98818.10
2019-01-11T21:33:38.857Z,98816.34
2019-01-11T21:36:09.116Z,98815.38
2019-01-11T21:38:41.169Z,98823.17
2019-01-11T21:41:11.587Z,98825.44
2019-01-11T21:43:42.154Z,98821.67
2019-01-11T21:46:12.902Z,98817.36
2019-01-11T21:48:43.648Z,98819.69
2019-01-11T21:51:14.017Z,98818.27
2019-01-11T21:53:44.515Z,98815.19
2019-01-11T21:56:14.802Z,98817.84
2019-01-11T21:58:45.270Z,98820.79
2019-01-11T22:01:15.922Z,98820.88
2019-01-11T22:03:46.361Z,98816.14
2019-01-11T22:06:17.933Z,98815.41
2019-01-11T22:08:51.510Z,98816.28
2019-01-11T22:11:22.142Z,98818.95
2019-01-11T22:13:52.775Z,98812.80
2019-01-11T22:16:23.171Z,98819.63
2019-01-11T22:18:53.791Z,98813.70
2019-01-11T22:21:24.248Z,98829.23
2019-01-11T22:23:54.771Z,98827.04
2019-01-11T22:26:25.018Z,98825.03
2019-01-11T22:28:55.696Z,98822.22
2019-01-11T22:31:26.632Z,98824.06
2019-01-11T22:33:57.475Z,98828.38
2019-01-11T22:36:28.037Z,98824.38
2019-01-11T22:38:58.634Z,98829.25
2019-01-11T22:41:28.848Z,98833.55
2019-01-11T22:43:59.263Z,98827.53
2019-01-11T22:46:29.765Z,98818.58
2019-01-11T22:49:00.136Z,98820.15
2019-01-11T22:51:30.557Z,98821.11
2019-01-11T22:54:00.882Z,98812.66
2019-01-11T22:56:31.315Z,98813.72
2019-01-11T22:59:01.771Z,98819.64
2019-01-11T23:02:28.458Z,98821.34
2019-01-11T23:04:59.129Z,98822.16
2019-01-11T23:07:48.815Z,98822.16
2019-01-11T23:10:32.766Z,98818.82
2019-01-11T23:13:15.360Z,98827.25
2019-01-11T23:15:52.719Z,98829.33
2019-01-11T23:18:25.745Z,98823.26
2019-01-11T23:21:02.257Z,98826.75
2019-01-11T23:23:32.712Z,98827.17
2019-01-11T23:26:03.043Z,98831.11
2019-01-11T23:28:33.498Z,98833.93
2019-01-11T23:31:03.945Z,98840.36
2019-01-11T23:33:34.584Z,98834.52
2019-01-11T23:36:05.290Z,98844.36
2019-01-11T23:38:35.941Z,98845.77
2019-01-11T23:41:06.280Z,98847.10
2019-01-11T23:43:36.507Z,98833.72
2019-01-11T23:46:06.760Z,98834.14
2019-01-11T23:48:36.918Z,98848.30
2019-01-11T23:51:07.111Z,98845.98
2019-01-11T23:53:37.343Z,98840.23
2019-01-11T23:56:07.643Z,98844.57
2019-01-11T23:58:38.223Z,98847.67
